sensor_id;sensor_type;location;lat;lon;timestamp;P1;durP1;ratioP1;P2;durP2;ratioP2
11877;SDS011;5998;42.676;23.268;2024-03-23T00:52:17;9.53;;;7.83;;
11877;SDS011;5998;42.676;23.268;2024-03-23T00:54:44;12.97;;;7.63;;
11877;SDS011;5998;42.676;23.268;2024-03-23T00:57:09;11.90;;;7.37;;
11877;SDS011;5998;42.676;23.268;2024-03-23T00:59:36;11.17;;;7.53;;
11877;SDS011;5998;42.676;23.268;2024-03-23T01:02:01;12.93;;;7.90;;
11877;SDS011;5998;42.676;23.268;2024-03-23T01:04:28;8.47;;;6.47;;
11877;SDS011;5998;42.676;23.268;2024-03-23T01:06:54;12.00;;;7.57;;
11877;SDS011;5998;42.676;23.268;2024-03-23T01:09:22;11.80;;;6.70;;
11877;SDS011;5998;42.676;23.268;2024-03-23T01:11:48;12.40;;;7.37;;
11877;SDS011;5998;42.676;23.268;2024-03-23T01:14:14;9.00;;;6.90;;
11877;SDS011;5998;42.676;23.268;2024-03-23T01:16:40;9.77;;;6.13;;
11877;SDS011;5998;42.676;23.268;2024-03-23T01:19:07;12.73;;;6.57;;
11877;SDS011;5998;42.676;23.268;2024-03-23T01:21:32;10.87;;;6.63;;
11877;SDS011;5998;42.676;23.268;2024-03-23T01:23:59;8.17;;;5.90;;
11877;SDS011;5998;42.676;23.268;2024-03-23T01:26:26;7.67;;;6.20;;
11877;SDS011;5998;42.676;23.268;2024-03-23T01:28:53;8.73;;;6.10;;
11877;SDS011;5998;42.676;23.268;2024-03-23T01:31:18;12.07;;;6.77;;
11877;SDS011;5998;42.676;23.268;2024-03-23T01:33:45;10.40;;;6.87;;
11877;SDS011;5998;42.676;23.268;2024-03-23T01:36:11;10.80;;;7.33;;
11877;SDS011;5998;42.676;23.268;2024-03-23T01:38:37;13.50;;;7.10;;
11877;SDS011;5998;42.676;23.268;2024-03-23T01:41:03;17.93;;;6.93;;
11877;SDS011;5998;42.676;23.268;2024-03-23T01:43:31;12.00;;;6.37;;
11877;SDS011;5998;42.676;23.268;2024-03-23T01:45:57;10.83;;;6.37;;
11877;SDS011;5998;42.676;23.268;2024-03-23T01:48:24;12.90;;;7.10;;
11877;SDS011;5998;42.676;23.268;2024-03-23T01:50:49;12.53;;;6.63;;
11877;SDS011;5998;42.676;23.268;2024-03-23T01:53:16;13.57;;;6.83;;
11877;SDS011;5998;42.676;23.268;2024-03-23T01:55:42;14.07;;;6.50;;
11877;SDS011;5998;42.676;23.268;2024-03-23T01:58:09;11.50;;;7.57;;
11877;SDS011;5998;42.676;23.268;2024-03-23T02:00:36;11.33;;;6.50;;
11877;SDS011;5998;42.676;23.268;2024-03-23T02:03:11;11.33;;;7.50;;
11877;SDS011;5998;42.676;23.268;2024-03-23T02:05:47;13.17;;;7.00;;
11877;SDS011;5998;42.676;23.268;2024-03-23T02:08:14;11.07;;;7.23;;
11877;SDS011;5998;42.676;23.268;2024-03-23T02:10:40;13.50;;;6.83;;
11877;SDS011;5998;42.676;23.268;2024-03-23T02:13:07;11.80;;;7.83;;
11877;SDS011;5998;42.676;23.268;2024-03-23T02:15:33;13.87;;;8.30;;
11877;SDS011;5998;42.676;23.268;2024-03-23T02:18:01;12.10;;;7.30;;
11877;SDS011;5998;42.676;23.268;2024-03-23T02:20:27;10.83;;;7.70;;
11877;SDS011;5998;42.676;23.268;2024-03-23T02:22:55;13.03;;;9.27;;
11877;SDS011;5998;42.676;23.268;2024-03-23T02:25:20;10.33;;;7.03;;
11877;SDS011;5998;42.676;23.268;2024-03-23T02:27:47;15.67;;;7.83;;
11877;SDS011;5998;42.676;23.268;2024-03-23T02:30:13;10.97;;;7.03;;
11877;SDS011;5998;42.676;23.268;2024-03-23T02:32:39;13.33;;;8.43;;
11877;SDS011;5998;42.676;23.268;2024-03-23T02:35:05;11.37;;;7.93;;
11877;SDS011;5998;42.676;23.268;2024-03-23T02:37:32;14.70;;;8.93;;
11877;SDS011;5998;42.676;23.268;2024-03-23T02:39:59;13.63;;;8.10;;
11877;SDS011;5998;42.676;23.268;2024-03-23T02:42:26;13.63;;;8.20;;
11877;SDS011;5998;42.676;23.268;2024-03-23T02:44:51;12.97;;;8.53;;
11877;SDS011;5998;42.676;23.268;2024-03-23T02:47:18;14.90;;;8.63;;
11877;SDS011;5998;42.676;23.268;2024-03-23T02:49:44;19.20;;;10.37;;
11877;SDS011;5998;42.676;23.268;2024-03-23T02:52:10;19.87;;;9.30;;
11877;SDS011;5998;42.676;23.268;2024-03-23T02:54:36;17.37;;;9.90;;
11877;SDS011;5998;42.676;23.268;2024-03-23T02:57:04;12.47;;;8.90;;
11877;SDS011;5998;42.676;23.268;2024-03-23T02:59:30;13.87;;;8.93;;
11877;SDS011;5998;42.676;23.268;2024-03-23T03:01:56;17.63;;;9.27;;
11877;SDS011;5998;42.676;23.268;2024-03-23T03:04:22;15.20;;;8.77;;
11877;SDS011;5998;42.676;23.268;2024-03-23T03:06:49;21.03;;;10.30;;
11877;SDS011;5998;42.676;23.268;2024-03-23T03:09:15;21.83;;;10.63;;
11877;SDS011;5998;42.676;23.268;2024-03-23T03:11:41;16.60;;;8.87;;
11877;SDS011;5998;42.676;23.268;2024-03-23T03:14:08;16.53;;;9.13;;
11877;SDS011;5998;42.676;23.268;2024-03-23T03:16:35;18.83;;;10.27;;
11877;SDS011;5998;42.676;23.268;2024-03-23T03:19:00;23.00;;;9.77;;
11877;SDS011;5998;42.676;23.268;2024-03-23T03:21:27;20.47;;;9.73;;
11877;SDS011;5998;42.676;23.268;2024-03-23T03:23:53;17.43;;;10.10;;
11877;SDS011;5998;42.676;23.268;2024-03-23T03:26:21;15.57;;;10.33;;
11877;SDS011;5998;42.676;23.268;2024-03-23T03:28:47;16.17;;;9.97;;
11877;SDS011;5998;42.676;23.268;2024-03-23T03:31:16;13.97;;;9.90;;
11877;SDS011;5998;42.676;23.268;2024-03-23T03:33:42;14.53;;;10.13;;
11877;SDS011;5998;42.676;23.268;2024-03-23T03:36:09;15.73;;;10.27;;
11877;SDS011;5998;42.676;23.268;2024-03-23T03:38:34;15.97;;;9.27;;
11877;SDS011;5998;42.676;23.268;2024-03-23T03:41:01;17.20;;;10.07;;
11877;SDS011;5998;42.676;23.268;2024-03-23T03:43:27;14.23;;;9.73;;
11877;SDS011;5998;42.676;23.268;2024-03-23T03:45:54;14.87;;;10.03;;
11877;SDS011;5998;42.676;23.268;2024-03-23T03:48:21;18.37;;;9.33;;
11877;SDS011;5998;42.676;23.268;2024-03-23T03:50:48;16.73;;;9.50;;
11877;SDS011;5998;42.676;23.268;2024-03-23T03:53:14;18.90;;;10.10;;
11877;SDS011;5998;42.676;23.268;2024-03-23T03:55:41;22.20;;;10.00;;
11877;SDS011;5998;42.676;23.268;2024-03-23T03:58:07;17.73;;;10.33;;
11877;SDS011;5998;42.676;23.268;2024-03-23T04:00:33;22.83;;;10.93;;
11877;SDS011;5998;42.676;23.268;2024-03-23T04:03:00;18.57;;;10.67;;
11877;SDS011;5998;42.676;23.268;2024-03-23T04:05:28;19.13;;;10.63;;
11877;SDS011;5998;42.676;23.268;2024-03-23T04:07:54;18.37;;;10.77;;
11877;SDS011;5998;42.676;23.268;2024-03-23T04:10:21;19.63;;;10.33;;
11877;SDS011;5998;42.676;23.268;2024-03-23T04:12:47;15.70;;;9.27;;
11877;SDS011;5998;42.676;23.268;2024-03-23T04:15:14;14.60;;;9.23;;
11877;SDS011;5998;42.676;23.268;2024-03-23T04:17:39;13.53;;;9.77;;
11877;SDS011;5998;42.676;23.268;2024-03-23T04:20:08;19.90;;;10.30;;
11877;SDS011;5998;42.676;23.268;2024-03-23T04:22:37;22.80;;;10.13;;
11877;SDS011;5998;42.676;23.268;2024-03-23T04:25:04;21.80;;;10.63;;
11877;SDS011;5998;42.676;23.268;2024-03-23T04:27:31;24.97;;;10.70;;
11877;SDS011;5998;42.676;23.268;2024-03-23T04:29:58;19.47;;;10.13;;
11877;SDS011;5998;42.676;23.268;2024-03-23T04:32:26;32.77;;;12.37;;
11877;SDS011;5998;42.676;23.268;2024-03-23T04:34:53;29.57;;;12.07;;
11877;SDS011;5998;42.676;23.268;2024-03-23T04:37:19;22.80;;;10.07;;
11877;SDS011;5998;42.676;23.268;2024-03-23T04:39:47;16.77;;;9.77;;
11877;SDS011;5998;42.676;23.268;2024-03-23T04:42:14;17.17;;;9.40;;
11877;SDS011;5998;42.676;23.268;2024-03-23T04:44:41;16.27;;;8.73;;
11877;SDS011;5998;42.676;23.268;2024-03-23T04:47:08;19.77;;;9.77;;
11877;SDS011;5998;42.676;23.268;2024-03-23T04:49:34;15.67;;;8.47;;
11877;SDS011;5998;42.676;23.268;2024-03-23T04:52:02;16.90;;;8.87;;
11877;SDS011;5998;42.676;23.268;2024-03-23T04:54:29;18.67;;;8.63;;
11877;SDS011;5998;42.676;23.268;2024-03-23T04:56:56;31.93;;;10.87;;
11877;SDS011;5998;42.676;23.268;2024-03-23T04:59:23;29.20;;;11.93;;
11877;SDS011;5998;42.676;23.268;2024-03-23T05:01:48;27.80;;;10.60;;
11877;SDS011;5998;42.676;23.268;2024-03-23T05:04:15;29.20;;;9.67;;
11877;SDS011;5998;42.676;23.268;2024-03-23T05:06:40;25.43;;;9.90;;
11877;SDS011;5998;42.676;23.268;2024-03-23T05:09:07;19.47;;;9.53;;
11877;SDS011;5998;42.676;23.268;2024-03-23T05:11:36;14.63;;;8.97;;
11877;SDS011;5998;42.676;23.268;2024-03-23T05:14:04;14.63;;;9.07;;
11877;SDS011;5998;42.676;23.268;2024-03-23T05:16:30;16.00;;;8.27;;
11877;SDS011;5998;42.676;23.268;2024-03-23T05:18:57;14.10;;;8.53;;
11877;SDS011;5998;42.676;23.268;2024-03-23T05:21:22;16.27;;;10.80;;
11877;SDS011;5998;42.676;23.268;2024-03-23T05:23:49;24.30;;;13.70;;
11877;SDS011;5998;42.676;23.268;2024-03-23T05:26:16;29.37;;;16.93;;
11877;SDS011;5998;42.676;23.268;2024-03-23T05:28:43;15.57;;;10.00;;
11877;SDS011;5998;42.676;23.268;2024-03-23T05:31:10;17.70;;;11.10;;
11877;SDS011;5998;42.676;23.268;2024-03-23T05:33:37;13.17;;;9.30;;
11877;SDS011;5998;42.676;23.268;2024-03-23T05:36:03;14.53;;;8.73;;
11877;SDS011;5998;42.676;23.268;2024-03-23T05:38:31;16.20;;;8.80;;
11877;SDS011;5998;42.676;23.268;2024-03-23T05:40:57;15.90;;;8.70;;
11877;SDS011;5998;42.676;23.268;2024-03-23T05:43:24;19.07;;;9.50;;
11877;SDS011;5998;42.676;23.268;2024-03-23T05:45:54;18.10;;;8.90;;
11877;SDS011;5998;42.676;23.268;2024-03-23T05:48:22;16.87;;;9.37;;
11877;SDS011;5998;42.676;23.268;2024-03-23T05:50:48;14.93;;;9.47;;
11877;SDS011;5998;42.676;23.268;2024-03-23T05:53:15;20.23;;;10.10;;
11877;SDS011;5998;42.676;23.268;2024-03-23T05:55:41;12.40;;;9.30;;
11877;SDS011;5998;42.676;23.268;2024-03-23T05:58:08;16.23;;;9.50;;
11877;SDS011;5998;42.676;23.268;2024-03-23T06:00:34;14.80;;;10.63;;
11877;SDS011;5998;42.676;23.268;2024-03-23T06:03:01;17.33;;;9.50;;
11877;SDS011;5998;42.676;23.268;2024-03-23T06:05:28;17.80;;;9.73;;
11877;SDS011;5998;42.676;23.268;2024-03-23T06:07:55;16.53;;;9.97;;
11877;SDS011;5998;42.676;23.268;2024-03-23T06:10:20;16.40;;;10.17;;
11877;SDS011;5998;42.676;23.268;2024-03-23T06:12:47;13.07;;;9.80;;
11877;SDS011;5998;42.676;23.268;2024-03-23T06:15:14;16.00;;;9.87;;
11877;SDS011;5998;42.676;23.268;2024-03-23T06:17:41;19.63;;;10.03;;
11877;SDS011;5998;42.676;23.268;2024-03-23T06:20:07;19.63;;;10.17;;
11877;SDS011;5998;42.676;23.268;2024-03-23T06:22:36;16.03;;;9.43;;
11877;SDS011;5998;42.676;23.268;2024-03-23T06:25:02;14.90;;;10.57;;
11877;SDS011;5998;42.676;23.268;2024-03-23T06:27:29;13.37;;;8.90;;
11877;SDS011;5998;42.676;23.268;2024-03-23T06:29:54;16.23;;;9.80;;
11877;SDS011;5998;42.676;23.268;2024-03-23T06:32:21;17.97;;;10.57;;
11877;SDS011;5998;42.676;23.268;2024-03-23T06:34:47;13.90;;;9.30;;
11877;SDS011;5998;42.676;23.268;2024-03-23T06:37:14;17.90;;;10.07;;
11877;SDS011;5998;42.676;23.268;2024-03-23T06:39:41;18.77;;;10.40;;
11877;SDS011;5998;42.676;23.268;2024-03-23T06:42:07;14.70;;;9.50;;
11877;SDS011;5998;42.676;23.268;2024-03-23T06:44:33;15.07;;;9.50;;
11877;SDS011;5998;42.676;23.268;2024-03-23T06:47:00;14.33;;;10.30;;
11877;SDS011;5998;42.676;23.268;2024-03-23T06:49:26;15.17;;;9.20;;
11877;SDS011;5998;42.676;23.268;2024-03-23T06:51:53;14.30;;;9.10;;
11877;SDS011;5998;42.676;23.268;2024-03-23T06:54:18;9.43;;;7.47;;
11877;SDS011;5998;42.676;23.268;2024-03-23T06:56:47;10.30;;;7.73;;
11877;SDS011;5998;42.676;23.268;2024-03-23T06:59:12;10.67;;;7.70;;
11877;SDS011;5998;42.676;23.268;2024-03-23T07:01:39;14.30;;;8.37;;
11877;SDS011;5998;42.676;23.268;2024-03-23T07:04:05;10.17;;;7.37;;
11877;SDS011;5998;42.676;23.268;2024-03-23T07:06:31;12.53;;;8.70;;
11877;SDS011;5998;42.676;23.268;2024-03-23T07:08:57;11.27;;;7.53;;
11877;SDS011;5998;42.676;23.268;2024-03-23T07:11:24;11.17;;;7.17;;
11877;SDS011;5998;42.676;23.268;2024-03-23T07:13:51;12.87;;;8.43;;
11877;SDS011;5998;42.676;23.268;2024-03-23T07:16:19;12.80;;;8.80;;
11877;SDS011;5998;42.676;23.268;2024-03-23T07:18:45;13.63;;;8.00;;
11877;SDS011;5998;42.676;23.268;2024-03-23T07:21:12;16.97;;;9.10;;
11877;SDS011;5998;42.676;23.268;2024-03-23T07:23:38;15.10;;;9.00;;
11877;SDS011;5998;42.676;23.268;2024-03-23T07:26:09;14.70;;;9.03;;
11877;SDS011;5998;42.676;23.268;2024-03-23T07:28:35;14.10;;;8.57;;
11877;SDS011;5998;42.676;23.268;2024-03-23T07:31:04;13.57;;;8.23;;
11877;SDS011;5998;42.676;23.268;2024-03-23T07:33:32;12.73;;;7.83;;
11877;SDS011;5998;42.676;23.268;2024-03-23T07:35:59;10.30;;;7.37;;
11877;SDS011;5998;42.676;23.268;2024-03-23T07:38:26;10.43;;;8.73;;
11877;SDS011;5998;42.676;23.268;2024-03-23T07:40:55;14.37;;;8.63;;
11877;SDS011;5998;42.676;23.268;2024-03-23T07:43:28;11.10;;;6.77;;
11877;SDS011;5998;42.676;23.268;2024-03-23T07:45:54;13.07;;;8.23;;
11877;SDS011;5998;42.676;23.268;2024-03-23T07:48:22;11.93;;;8.80;;
11877;SDS011;5998;42.676;23.268;2024-03-23T07:50:56;14.73;;;8.27;;
11877;SDS011;5998;42.676;23.268;2024-03-23T07:53:25;13.40;;;8.80;;
11877;SDS011;5998;42.676;23.268;2024-03-23T07:55:52;12.00;;;9.00;;
11877;SDS011;5998;42.676;23.268;2024-03-23T07:58:20;14.67;;;9.03;;
11877;SDS011;5998;42.676;23.268;2024-03-23T08:00:46;14.80;;;9.37;;
11877;SDS011;5998;42.676;23.268;2024-03-23T08:03:12;13.33;;;9.50;;
11877;SDS011;5998;42.676;23.268;2024-03-23T08:05:40;13.27;;;9.50;;
11877;SDS011;5998;42.676;23.268;2024-03-23T08:08:06;12.67;;;9.37;;
11877;SDS011;5998;42.676;23.268;2024-03-23T08:10:32;15.23;;;9.63;;
11877;SDS011;5998;42.676;23.268;2024-03-23T08:12:58;19.77;;;9.30;;
11877;SDS011;5998;42.676;23.268;2024-03-23T08:15:25;15.27;;;9.67;;
11877;SDS011;5998;42.676;23.268;2024-03-23T08:17:51;12.27;;;9.07;;
11877;SDS011;5998;42.676;23.268;2024-03-23T08:20:17;13.73;;;9.07;;
11877;SDS011;5998;42.676;23.268;2024-03-23T08:22:45;11.30;;;9.27;;
11877;SDS011;5998;42.676;23.268;2024-03-23T08:25:11;15.27;;;9.53;;
11877;SDS011;5998;42.676;23.268;2024-03-23T08:27:37;16.40;;;9.60;;
11877;SDS011;5998;42.676;23.268;2024-03-23T08:30:03;17.30;;;9.93;;
11877;SDS011;5998;42.676;23.268;2024-03-23T08:32:31;15.23;;;9.80;;
11877;SDS011;5998;42.676;23.268;2024-03-23T08:34:56;17.63;;;7.80;;
11877;SDS011;5998;42.676;23.268;2024-03-23T08:37:23;10.77;;;8.67;;
11877;SDS011;5998;42.676;23.268;2024-03-23T08:39:52;12.80;;;8.97;;
11877;SDS011;5998;42.676;23.268;2024-03-23T08:42:19;21.03;;;10.63;;
11877;SDS011;5998;42.676;23.268;2024-03-23T08:44:46;14.27;;;9.90;;
11877;SDS011;5998;42.676;23.268;2024-03-23T08:47:14;13.53;;;8.90;;
11877;SDS011;5998;42.676;23.268;2024-03-23T08:49:40;14.90;;;9.10;;
11877;SDS011;5998;42.676;23.268;2024-03-23T08:52:07;14.43;;;9.83;;
11877;SDS011;5998;42.676;23.268;2024-03-23T08:54:32;13.60;;;9.93;;
11877;SDS011;5998;42.676;23.268;2024-03-23T08:57:00;15.77;;;10.00;;
11877;SDS011;5998;42.676;23.268;2024-03-23T08:59:26;15.87;;;9.73;;
11877;SDS011;5998;42.676;23.268;2024-03-23T09:01:53;18.03;;;10.27;;
11877;SDS011;5998;42.676;23.268;2024-03-23T09:04:19;13.10;;;9.57;;
11877;SDS011;5998;42.676;23.268;2024-03-23T09:06:46;12.83;;;7.90;;
11877;SDS011;5998;42.676;23.268;2024-03-23T09:09:12;14.03;;;10.10;;
11877;SDS011;5998;42.676;23.268;2024-03-23T09:11:38;13.67;;;8.90;;
11877;SDS011;5998;42.676;23.268;2024-03-23T09:14:06;14.23;;;9.20;;
11877;SDS011;5998;42.676;23.268;2024-03-23T09:16:32;13.17;;;9.03;;
11877;SDS011;5998;42.676;23.268;2024-03-23T09:18:58;12.37;;;9.20;;
11877;SDS011;5998;42.676;23.268;2024-03-23T09:21:25;10.90;;;9.30;;
11877;SDS011;5998;42.676;23.268;2024-03-23T09:23:50;17.50;;;9.93;;
11877;SDS011;5998;42.676;23.268;2024-03-23T09:26:17;14.97;;;10.03;;
11877;SDS011;5998;42.676;23.268;2024-03-23T09:28:43;15.03;;;10.13;;
11877;SDS011;5998;42.676;23.268;2024-03-23T09:31:11;11.57;;;9.07;;
11877;SDS011;5998;42.676;23.268;2024-03-23T09:33:39;16.27;;;10.60;;
11877;SDS011;5998;42.676;23.268;2024-03-23T09:36:06;13.33;;;9.70;;
11877;SDS011;5998;42.676;23.268;2024-03-23T09:38:33;16.90;;;9.57;;
11877;SDS011;5998;42.676;23.268;2024-03-23T09:41:00;15.53;;;9.33;;
11877;SDS011;5998;42.676;23.268;2024-03-23T09:43:25;14.17;;;8.87;;
11877;SDS011;5998;42.676;23.268;2024-03-23T09:45:52;13.63;;;9.03;;
11877;SDS011;5998;42.676;23.268;2024-03-23T09:48:20;12.53;;;9.50;;
11877;SDS011;5998;42.676;23.268;2024-03-23T09:50:46;14.87;;;9.53;;
11877;SDS011;5998;42.676;23.268;2024-03-23T09:53:13;10.30;;;8.73;;
11877;SDS011;5998;42.676;23.268;2024-03-23T09:55:41;19.27;;;8.97;;
11877;SDS011;5998;42.676;23.268;2024-03-23T09:58:08;11.67;;;8.37;;
11877;SDS011;5998;42.676;23.268;2024-03-23T10:00:38;9.23;;;8.10;;
11877;SDS011;5998;42.676;23.268;2024-03-23T10:03:04;11.80;;;8.17;;
11877;SDS011;5998;42.676;23.268;2024-03-23T10:05:33;9.80;;;8.47;;
11877;SDS011;5998;42.676;23.268;2024-03-23T10:07:59;11.00;;;8.60;;
11877;SDS011;5998;42.676;23.268;2024-03-23T10:10:26;12.83;;;8.50;;
11877;SDS011;5998;42.676;23.268;2024-03-23T10:12:52;11.77;;;8.57;;
11877;SDS011;5998;42.676;23.268;2024-03-23T10:15:19;10.17;;;7.00;;
11877;SDS011;5998;42.676;23.268;2024-03-23T10:17:46;12.90;;;8.03;;
11877;SDS011;5998;42.676;23.268;2024-03-23T10:20:13;11.90;;;8.20;;
11877;SDS011;5998;42.676;23.268;2024-03-23T10:22:45;9.50;;;7.33;;
11877;SDS011;5998;42.676;23.268;2024-03-23T10:25:12;11.53;;;8.10;;
11877;SDS011;5998;42.676;23.268;2024-03-23T10:27:39;10.47;;;8.20;;
11877;SDS011;5998;42.676;23.268;2024-03-23T10:30:08;11.13;;;7.97;;
11877;SDS011;5998;42.676;23.268;2024-03-23T10:32:35;13.47;;;8.43;;
11877;SDS011;5998;42.676;23.268;2024-03-23T10:35:15;14.80;;;8.67;;
11877;SDS011;5998;42.676;23.268;2024-03-23T10:37:45;12.27;;;8.30;;
11877;SDS011;5998;42.676;23.268;2024-03-23T10:40:12;10.07;;;7.40;;
11877;SDS011;5998;42.676;23.268;2024-03-23T10:42:38;11.07;;;8.10;;
11877;SDS011;5998;42.676;23.268;2024-03-23T10:45:06;14.37;;;8.37;;
11877;SDS011;5998;42.676;23.268;2024-03-23T10:47:34;13.03;;;7.63;;
11877;SDS011;5998;42.676;23.268;2024-03-23T10:50:03;10.70;;;7.30;;
11877;SDS011;5998;42.676;23.268;2024-03-23T10:52:30;11.77;;;8.10;;
11877;SDS011;5998;42.676;23.268;2024-03-23T10:54:58;11.17;;;7.97;;
11877;SDS011;5998;42.676;23.268;2024-03-23T10:57:26;8.73;;;6.33;;
11877;SDS011;5998;42.676;23.268;2024-03-23T11:00:01;13.73;;;8.00;;
11877;SDS011;5998;42.676;23.268;2024-03-23T11:02:27;11.57;;;7.60;;
11877;SDS011;5998;42.676;23.268;2024-03-23T11:04:55;9.50;;;7.20;;
11877;SDS011;5998;42.676;23.268;2024-03-23T11:07:30;11.20;;;8.07;;
11877;SDS011;5998;42.676;23.268;2024-03-23T11:09:59;9.87;;;7.03;;
11877;SDS011;5998;42.676;23.268;2024-03-23T11:12:28;9.53;;;6.97;;
11877;SDS011;5998;42.676;23.268;2024-03-23T11:14:59;13.47;;;7.00;;
11877;SDS011;5998;42.676;23.268;2024-03-23T11:17:27;12.57;;;8.37;;
11877;SDS011;5998;42.676;23.268;2024-03-23T11:19:54;9.20;;;6.90;;
11877;SDS011;5998;42.676;23.268;2024-03-23T11:22:40;9.83;;;7.43;;
11877;SDS011;5998;42.676;23.268;2024-03-23T11:25:13;10.00;;;7.27;;
11877;SDS011;5998;42.676;23.268;2024-03-23T11:27:40;11.40;;;7.20;;
11877;SDS011;5998;42.676;23.268;2024-03-23T11:30:14;12.30;;;6.83;;
11877;SDS011;5998;42.676;23.268;2024-03-23T11:32:41;8.33;;;5.93;;
11877;SDS011;5998;42.676;23.268;2024-03-23T11:35:08;11.20;;;6.10;;
11877;SDS011;5998;42.676;23.268;2024-03-23T11:37:35;10.43;;;6.10;;
11877;SDS011;5998;42.676;23.268;2024-03-23T11:40:19;7.57;;;6.57;;
11877;SDS011;5998;42.676;23.268;2024-03-23T11:42:45;8.97;;;6.70;;
11877;SDS011;5998;42.676;23.268;2024-03-23T11:45:12;11.33;;;6.93;;
11877;SDS011;5998;42.676;23.268;2024-03-23T11:47:39;11.33;;;6.40;;
11877;SDS011;5998;42.676;23.268;2024-03-23T11:50:06;12.20;;;6.63;;
11877;SDS011;5998;42.676;23.268;2024-03-23T11:52:32;10.73;;;5.27;;
11877;SDS011;5998;42.676;23.268;2024-03-23T11:55:08;9.63;;;6.30;;
11877;SDS011;5998;42.676;23.268;2024-03-23T11:57:35;10.27;;;5.70;;
11877;SDS011;5998;42.676;23.268;2024-03-23T12:00:02;6.93;;;4.83;;
11877;SDS011;5998;42.676;23.268;2024-03-23T12:02:45;5.37;;;4.20;;
11877;SDS011;5998;42.676;23.268;2024-03-23T12:05:15;3.20;;;2.70;;
11877;SDS011;5998;42.676;23.268;2024-03-23T12:07:41;3.00;;;1.90;;
11877;SDS011;5998;42.676;23.268;2024-03-23T12:10:08;6.07;;;3.20;;
11877;SDS011;5998;42.676;23.268;2024-03-23T12:12:35;6.90;;;2.83;;
11877;SDS011;5998;42.676;23.268;2024-03-23T12:15:02;8.23;;;2.50;;
11877;SDS011;5998;42.676;23.268;2024-03-23T12:17:29;2.27;;;2.07;;
11877;SDS011;5998;42.676;23.268;2024-03-23T12:19:55;1.77;;;1.67;;
11877;SDS011;5998;42.676;23.268;2024-03-23T12:22:21;4.83;;;1.50;;
11877;SDS011;5998;42.676;23.268;2024-03-23T12:24:48;2.57;;;1.60;;
11877;SDS011;5998;42.676;23.268;2024-03-23T12:27:14;5.53;;;1.93;;
11877;SDS011;5998;42.676;23.268;2024-03-23T12:29:42;2.40;;;1.43;;
11877;SDS011;5998;42.676;23.268;2024-03-23T12:32:08;1.80;;;1.70;;
11877;SDS011;5998;42.676;23.268;2024-03-23T12:34:35;2.53;;;1.87;;
11877;SDS011;5998;42.676;23.268;2024-03-23T12:37:01;2.90;;;1.60;;
11877;SDS011;5998;42.676;23.268;2024-03-23T12:39:27;2.10;;;1.40;;
11877;SDS011;5998;42.676;23.268;2024-03-23T12:41:53;1.70;;;1.60;;
11877;SDS011;5998;42.676;23.268;2024-03-23T12:44:20;1.50;;;1.40;;
11877;SDS011;5998;42.676;23.268;2024-03-23T12:46:47;8.17;;;1.77;;
11877;SDS011;5998;42.676;23.268;2024-03-23T12:49:14;3.30;;;1.40;;
11877;SDS011;5998;42.676;23.268;2024-03-23T12:51:40;1.47;;;1.20;;
11877;SDS011;5998;42.676;23.268;2024-03-23T12:54:14;1.83;;;1.57;;
11877;SDS011;5998;42.676;23.268;2024-03-23T12:56:40;2.10;;;1.87;;
11877;SDS011;5998;42.676;23.268;2024-03-23T12:59:06;1.73;;;1.63;;
11877;SDS011;5998;42.676;23.268;2024-03-23T13:01:32;1.67;;;1.57;;
11877;SDS011;5998;42.676;23.268;2024-03-23T13:04:00;9.93;;;2.00;;
11877;SDS011;5998;42.676;23.268;2024-03-23T13:06:27;3.87;;;1.80;;
11877;SDS011;5998;42.676;23.268;2024-03-23T13:08:59;1.40;;;1.30;;
11877;SDS011;5998;42.676;23.268;2024-03-23T13:11:24;1.63;;;1.50;;
11877;SDS011;5998;42.676;23.268;2024-03-23T13:13:51;1.53;;;1.43;;
11877;SDS011;5998;42.676;23.268;2024-03-23T13:16:17;2.80;;;1.40;;
11877;SDS011;5998;42.676;23.268;2024-03-23T13:18:43;1.47;;;1.37;;
11877;SDS011;5998;42.676;23.268;2024-03-23T13:21:10;1.90;;;1.60;;
11877;SDS011;5998;42.676;23.268;2024-03-23T13:23:37;1.67;;;1.57;;
11877;SDS011;5998;42.676;23.268;2024-03-23T13:26:05;1.63;;;1.53;;
11877;SDS011;5998;42.676;23.268;2024-03-23T13:28:32;1.60;;;1.50;;
11877;SDS011;5998;42.676;23.268;2024-03-23T13:30:58;1.60;;;1.50;;
11877;SDS011;5998;42.676;23.268;2024-03-23T13:33:28;1.60;;;1.50;;
11877;SDS011;5998;42.676;23.268;2024-03-23T13:35:55;5.87;;;1.80;;
11877;SDS011;5998;42.676;23.268;2024-03-23T13:38:23;1.63;;;1.50;;
11877;SDS011;5998;42.676;23.268;2024-03-23T13:40:50;2.00;;;1.50;;
11877;SDS011;5998;42.676;23.268;2024-03-23T13:43:17;1.67;;;1.57;;
11877;SDS011;5998;42.676;23.268;2024-03-23T13:45:44;2.57;;;2.10;;
11877;SDS011;5998;42.676;23.268;2024-03-23T13:48:11;3.20;;;2.27;;
11877;SDS011;5998;42.676;23.268;2024-03-23T13:50:37;2.30;;;2.10;;
11877;SDS011;5998;42.676;23.268;2024-03-23T13:53:03;3.30;;;2.00;;
11877;SDS011;5998;42.676;23.268;2024-03-23T13:55:30;3.27;;;2.77;;
11877;SDS011;5998;42.676;23.268;2024-03-23T13:57:57;3.77;;;1.90;;
11877;SDS011;5998;42.676;23.268;2024-03-23T14:00:23;3.53;;;2.00;;
11877;SDS011;5998;42.676;23.268;2024-03-23T14:02:49;2.47;;;2.20;;
11877;SDS011;5998;42.676;23.268;2024-03-23T14:05:15;4.57;;;2.33;;
11877;SDS011;5998;42.676;23.268;2024-03-23T14:07:42;2.53;;;2.33;;
11877;SDS011;5998;42.676;23.268;2024-03-23T14:10:08;2.30;;;2.10;;
11877;SDS011;5998;42.676;23.268;2024-03-23T14:17:12;2.10;;;2.00;;
11877;SDS011;5998;42.676;23.268;2024-03-23T14:19:39;1.97;;;1.80;;
11877;SDS011;5998;42.676;23.268;2024-03-23T14:22:05;2.93;;;2.63;;
11877;SDS011;5998;42.676;23.268;2024-03-23T14:24:32;8.40;;;2.97;;
11877;SDS011;5998;42.676;23.268;2024-03-23T14:26:58;4.43;;;2.67;;
11877;SDS011;5998;42.676;23.268;2024-03-23T14:29:28;4.77;;;2.60;;
11877;SDS011;5998;42.676;23.268;2024-03-23T14:31:54;10.27;;;3.57;;
11877;SDS011;5998;42.676;23.268;2024-03-23T14:34:22;2.57;;;2.37;;
11877;SDS011;5998;42.676;23.268;2024-03-23T14:36:51;3.63;;;2.50;;
11877;SDS011;5998;42.676;23.268;2024-03-23T14:39:18;4.47;;;2.40;;
11877;SDS011;5998;42.676;23.268;2024-03-23T14:41:48;3.93;;;2.77;;
11877;SDS011;5998;42.676;23.268;2024-03-23T14:44:16;5.70;;;2.70;;
11877;SDS011;5998;42.676;23.268;2024-03-23T14:46:41;4.17;;;2.60;;
11877;SDS011;5998;42.676;23.268;2024-03-23T14:49:09;4.93;;;2.97;;
11877;SDS011;5998;42.676;23.268;2024-03-23T14:51:42;4.33;;;2.40;;
11877;SDS011;5998;42.676;23.268;2024-03-23T14:54:09;3.70;;;2.87;;
11877;SDS011;5998;42.676;23.268;2024-03-23T14:56:35;4.37;;;2.83;;
11877;SDS011;5998;42.676;23.268;2024-03-23T14:59:02;3.60;;;2.60;;
11877;SDS011;5998;42.676;23.268;2024-03-23T15:01:28;3.80;;;2.53;;
11877;SDS011;5998;42.676;23.268;2024-03-23T15:22:24;2.83;;;2.63;;
11877;SDS011;5998;42.676;23.268;2024-03-23T15:24:50;3.57;;;2.70;;
11877;SDS011;5998;42.676;23.268;2024-03-23T15:27:16;6.47;;;2.57;;
11877;SDS011;5998;42.676;23.268;2024-03-23T15:29:43;4.47;;;2.77;;
11877;SDS011;5998;42.676;23.268;2024-03-23T15:32:11;3.87;;;2.77;;
11877;SDS011;5998;42.676;23.268;2024-03-23T15:34:37;5.17;;;2.70;;
11877;SDS011;5998;42.676;23.268;2024-03-23T15:37:03;2.60;;;2.33;;
11877;SDS011;5998;42.676;23.268;2024-03-23T15:39:31;3.80;;;2.90;;
11877;SDS011;5998;42.676;23.268;2024-03-23T15:41:57;3.30;;;2.77;;
11877;SDS011;5998;42.676;23.268;2024-03-23T15:44:24;9.43;;;3.10;;
11877;SDS011;5998;42.676;23.268;2024-03-23T15:46:49;5.23;;;2.43;;
11877;SDS011;5998;42.676;23.268;2024-03-23T16:05:07;6.80;;;3.50;;